This is the latest recevied weather packets stored in our database for station/object OK1VCF-6. If no packets are shown the sender has not sent any weather packets the latest 10 day(s).
| Time | Temp. | Humidity | Pressure | Rain* | Wind** | Luminosity | Snow |
|---|---|---|---|---|---|---|---|
| 1777742583 | 20° C | 36% | 1021.4 hPa | - | - | - | - |
| 1777740780 | 22.22° C | 34% | 1021.5 hPa | - | - | - | - |
| 1777736739 | 22.22° C | 34% | 1022.4 hPa | - | - | - | - |
| 1777736277 | 22.22° C | 34% | 1022.4 hPa | - | - | - | - |
| 1777735940 | 21.11° C | 34% | 1022.4 hPa | - | - | - | - |
| 1777735376 | 21.11° C | 34% | 1022.4 hPa | - | - | - | - |
| 1777723657 | 20° C | 41% | 1024.4 hPa | - | - | - | - |
| 1777721855 | 20° C | 33% | 1024.8 hPa | - | - | - | - |
| 1777711051 | 16.11° C | 48% | 1026.4 hPa | - | - | - | - |
| 1777708345 | 14.44° C | 54% | 1026.6 hPa | - | - | - | - |
| 1777696623 | 7.22° C | 81% | 1026.6 hPa | - | - | - | - |
| 1777693919 | 7.22° C | 80% | 1026.6 hPa | - | - | - | - |
| 1777688511 | 7.22° C | 79% | 1027.2 hPa | - | - | - | - |
| 1777685814 | 7.22° C | 78% | 1027.2 hPa | - | - | - | - |
| 1777685810 | 7.22° C | 78% | 1027.2 hPa | - | - | - | - |
| 1777683105 | 7.22° C | 76% | 1027.2 hPa | - | - | - | - |
| 1777673187 | 7.78° C | 74% | 1027.8 hPa | - | - | - | - |
| 1777673133 | 7.78° C | 74% | 1027.8 hPa | - | - | - | - |
| 1777670419 | 7.78° C | 75% | 1027.8 hPa | - | - | - | - |
| 1777668616 | 7.78° C | 76% | 1027.8 hPa | - | - | - | - |
| 1777667719 | 8.89° C | 72% | 1027.8 hPa | - | - | - | - |
| 1777665914 | 8.89° C | 71% | 1027.8 hPa | - | - | - | - |
| 1777655994 | 17.78° C | 44% | 1027.2 hPa | - | - | - | - |
| 1777646084 | 17.78° C | 44% | 1027.8 hPa | - | - | - | - |
| 1777639034 | 17.78° C | 52% | 1028.7 hPa | - | - | - | - |
* Rain since midnight (hover to see other rain measurements)
** Current wind speed in m/s (hover to see current wind gust speed)